createdAt,value
2016-04-28T00:00:01.775Z,1009.07
2016-04-28T00:01:01.762Z,1009.08
2016-04-28T00:02:01.749Z,1009.05
2016-04-28T00:03:01.735Z,1009.02
2016-04-28T00:04:01.724Z,1009.07
2016-04-28T00:05:01.695Z,1009.04
2016-04-28T00:06:01.682Z,1009.03
2016-04-28T00:07:01.668Z,1009.01
2016-04-28T00:08:01.656Z,1009.03
2016-04-28T00:09:01.627Z,1009.02
2016-04-28T00:10:01.614Z,1008.97
2016-04-28T00:11:01.601Z,1008.97
2016-04-28T00:12:01.573Z,1008.96
2016-04-28T00:13:01.560Z,1008.98
2016-04-28T00:14:01.547Z,1008.96
2016-04-28T00:15:01.534Z,1008.95
2016-04-28T00:16:01.505Z,1008.95
2016-04-28T00:17:01.493Z,1008.96
2016-04-28T00:18:01.479Z,1008.98
2016-04-28T00:19:01.467Z,1008.96
2016-04-28T00:20:04.391Z,1008.99
2016-04-28T00:21:01.425Z,1008.95
2016-04-28T00:22:01.412Z,1008.96
2016-04-28T00:23:01.400Z,1008.9
2016-04-28T00:24:01.370Z,1008.95
2016-04-28T00:25:01.358Z,1008.92
2016-04-28T00:26:01.345Z,1008.91
2016-04-28T00:27:01.332Z,1008.92
2016-04-28T00:28:01.319Z,1008.89
2016-04-28T00:29:01.290Z,1008.84
2016-04-28T00:30:01.294Z,1008.84
2016-04-28T00:31:01.264Z,1008.84
2016-04-28T00:32:01.236Z,1008.81
2016-04-28T00:33:01.222Z,1008.82
2016-04-28T00:34:01.210Z,1008.8
2016-04-28T00:35:01.197Z,1008.77
2016-04-28T00:36:01.168Z,1008.8
2016-04-28T00:37:01.171Z,1008.75
2016-04-28T00:38:01.143Z,1008.75
2016-04-28T00:39:01.130Z,1008.78
2016-04-28T00:40:01.132Z,1008.79
2016-04-28T00:41:01.088Z,1008.79
2016-04-28T00:42:01.075Z,1008.78
2016-04-28T00:43:01.063Z,1008.83
2016-04-28T00:44:01.049Z,1008.78
2016-04-28T00:45:01.021Z,1008.78
2016-04-28T00:46:01.007Z,1008.81
2016-04-28T00:47:00.979Z,1008.75
2016-04-28T00:48:00.982Z,1008.8
2016-04-28T00:49:00.953Z,1008.79
2016-04-28T00:50:00.940Z,1008.79
2016-04-28T00:51:00.928Z,1008.76
2016-04-28T00:52:00.915Z,1008.72
2016-04-28T00:53:00.886Z,1008.76
2016-04-28T00:54:00.873Z,1008.73
2016-04-28T00:55:00.861Z,1008.75
2016-04-28T00:56:01.441Z,1008.73
2016-04-28T00:57:00.819Z,1008.69
2016-04-28T00:58:00.806Z,1008.73
2016-04-28T00:59:00.792Z,1008.73
2016-04-28T01:00:00.764Z,1008.72
2016-04-28T01:01:00.752Z,1008.72
2016-04-28T01:02:00.738Z,1008.67
2016-04-28T01:03:00.725Z,1008.69
2016-04-28T01:04:00.697Z,1008.68
2016-04-28T01:05:00.684Z,1008.66
2016-04-28T01:06:00.671Z,1008.64
2016-04-28T01:07:00.658Z,1008.65
2016-04-28T01:08:00.629Z,1008.69
2016-04-28T01:09:00.616Z,1008.71
2016-04-28T01:10:00.604Z,1008.69
2016-04-28T01:11:01.512Z,1008.64
2016-04-28T01:12:00.609Z,1008.71
2016-04-28T01:13:00.549Z,1008.65
2016-04-28T01:14:00.537Z,1008.65
2016-04-28T01:15:00.523Z,1008.68
2016-04-28T01:16:00.510Z,1008.64
2016-04-28T01:17:00.482Z,1008.66
2016-04-28T01:18:00.469Z,1008.64
2016-04-28T01:19:00.456Z,1008.6
2016-04-28T01:20:00.428Z,1008.62
2016-04-28T01:21:00.430Z,1008.63
2016-04-28T01:22:00.401Z,1008.57
2016-04-28T01:23:00.389Z,1008.6
2016-04-28T01:24:00.359Z,1008.58
2016-04-28T01:25:00.347Z,1008.58
2016-04-28T01:26:00.334Z,1008.57
2016-04-28T01:27:00.322Z,1008.57
2016-04-28T01:28:00.308Z,1008.57
2016-04-28T01:29:00.280Z,1008.58
2016-04-28T01:30:00.267Z,1008.58
2016-04-28T01:31:00.254Z,1008.56
2016-04-28T01:32:00.225Z,1008.54
2016-04-28T01:33:00.212Z,1008.57
2016-04-28T01:34:00.199Z,1008.56
2016-04-28T01:35:00.171Z,1008.56
2016-04-28T01:36:00.158Z,1008.52
2016-04-28T01:37:00.144Z,1008.53
2016-04-28T01:38:00.133Z,1008.51
2016-04-28T01:39:00.119Z,1008.5
2016-04-28T01:40:00.091Z,1008.48
2016-04-28T01:41:00.374Z,1008.47
2016-04-28T01:42:00.065Z,1008.46
2016-04-28T01:43:00.036Z,1008.43
2016-04-28T01:44:00.024Z,1008.43
2016-04-28T01:45:00.010Z,1008.45
2016-04-28T01:45:59.997Z,1008.43
2016-04-28T01:46:59.969Z,1008.4
2016-04-28T01:47:59.956Z,1008.45
2016-04-28T01:48:59.943Z,1008.38
2016-04-28T01:49:59.929Z,1008.4
2016-04-28T01:50:59.902Z,1008.34
2016-04-28T01:51:59.889Z,1008.34
2016-04-28T01:52:59.875Z,1008.31
2016-04-28T01:53:59.863Z,1008.26
2016-04-28T01:54:59.850Z,1008.25
2016-04-28T01:55:59.821Z,1008.28
2016-04-28T01:56:59.808Z,1008.23
2016-04-28T01:57:59.795Z,1008.25
2016-04-28T01:58:59.782Z,1008.24
2016-04-28T01:59:59.754Z,1008.23
2016-04-28T02:00:59.741Z,1008.23
2016-04-28T02:01:59.727Z,1008.22
2016-04-28T02:02:59.700Z,1008.23
2016-04-28T02:03:59.686Z,1008.2
2016-04-28T02:04:59.674Z,1008.23
2016-04-28T02:05:59.660Z,1008.19
2016-04-28T02:06:59.632Z,1008.19
2016-04-28T02:07:59.619Z,1008.15
2016-04-28T02:08:59.606Z,1008.15
2016-04-28T02:09:59.593Z,1008.14
2016-04-28T02:10:59.768Z,1008.12
2016-04-28T02:11:59.552Z,1008.13
2016-04-28T02:12:59.538Z,1008.18
2016-04-28T02:13:59.510Z,1008.14
2016-04-28T02:14:59.496Z,1008.16
2016-04-28T02:15:59.485Z,1008.17
2016-04-28T02:16:59.471Z,1008.2
2016-04-28T02:17:59.459Z,1008.18
2016-04-28T02:18:59.430Z,1008.15
2016-04-28T02:19:59.417Z,1008.12
2016-04-28T02:20:59.388Z,1008.09
2016-04-28T02:21:59.375Z,1008.11
2016-04-28T02:22:59.368Z,1008.13
2016-04-28T02:23:59.340Z,1008.1
2016-04-28T02:24:59.327Z,1008.1
2016-04-28T02:25:59.876Z,1008.09
2016-04-28T02:26:59.301Z,1008.03
2016-04-28T02:27:59.272Z,1008.04
2016-04-28T02:28:59.260Z,1008.05
2016-04-28T02:29:59.246Z,1008.05
2016-04-28T02:30:59.218Z,1008.02
2016-04-28T02:31:59.205Z,1008.04
2016-04-28T02:32:59.192Z,1008.04
2016-04-28T02:33:59.179Z,1007.98
2016-04-28T02:34:59.150Z,1008
2016-04-28T02:35:59.138Z,1007.97
2016-04-28T02:36:59.125Z,1007.93
2016-04-28T02:37:59.112Z,1007.92
2016-04-28T02:38:59.083Z,1007.93
2016-04-28T02:39:59.069Z,1007.95
2016-04-28T02:40:59.073Z,1007.96
2016-04-28T02:41:59.045Z,1007.98
2016-04-28T02:42:59.031Z,1007.99
2016-04-28T02:43:59.002Z,1007.95
2016-04-28T02:44:58.975Z,1007.95
2016-04-28T02:45:58.961Z,1007.94
2016-04-28T02:46:58.949Z,1007.96
2016-04-28T02:47:58.935Z,1007.93
2016-04-28T02:48:58.923Z,1007.89
2016-04-28T02:49:58.894Z,1007.85
2016-04-28T02:50:58.881Z,1007.89
2016-04-28T02:51:58.868Z,1007.93
2016-04-28T02:52:58.854Z,1007.95
2016-04-28T02:53:58.827Z,1007.95
2016-04-28T02:54:58.813Z,1007.93
2016-04-28T02:55:59.754Z,1007.91
2016-04-28T02:57:01.101Z,1007.91
2016-04-28T02:57:58.759Z,1007.88
2016-04-28T02:58:58.746Z,1007.93
2016-04-28T02:59:58.733Z,1007.95
2016-04-28T03:00:58.705Z,1007.9
2016-04-28T03:01:58.692Z,1007.92
2016-04-28T03:02:58.679Z,1007.95
2016-04-28T03:03:58.650Z,1007.92
2016-04-28T03:04:58.637Z,1007.9
2016-04-28T03:05:58.625Z,1007.89
2016-04-28T03:06:58.595Z,1007.87
2016-04-28T03:07:58.583Z,1007.91
2016-04-28T03:08:58.570Z,1007.91
2016-04-28T03:09:58.558Z,1007.93
2016-04-28T03:10:58.528Z,1007.94
2016-04-28T03:11:58.516Z,1007.9
2016-04-28T03:12:58.503Z,1007.91
2016-04-28T03:13:58.489Z,1007.98
2016-04-28T03:14:58.461Z,1007.92
2016-04-28T03:15:58.464Z,1007.94
2016-04-28T03:16:58.435Z,1007.92
2016-04-28T03:17:58.422Z,1007.91
2016-04-28T03:18:58.394Z,1007.93
2016-04-28T03:19:58.380Z,1007.95
2016-04-28T03:20:58.352Z,1007.93
2016-04-28T03:21:58.340Z,1007.95
2016-04-28T03:22:58.327Z,1007.93
2016-04-28T03:23:58.313Z,1007.95
2016-04-28T03:24:58.285Z,1007.99
2016-04-28T03:25:58.272Z,1008.04
2016-04-28T03:26:58.259Z,1007.97
2016-04-28T03:27:58.246Z,1007.97
2016-04-28T03:28:58.217Z,1008
2016-04-28T03:29:58.205Z,1007.98
2016-04-28T03:30:58.192Z,1007.96
2016-04-28T03:31:58.163Z,1007.98
2016-04-28T03:32:58.150Z,1007.96
2016-04-28T03:33:58.137Z,1007.95
2016-04-28T03:34:58.109Z,1007.96
2016-04-28T03:35:58.095Z,1007.99
2016-04-28T03:36:58.083Z,1008
2016-04-28T03:37:58.070Z,1007.97
2016-04-28T03:38:58.042Z,1007.99
2016-04-28T03:39:58.028Z,1008
2016-04-28T03:40:58.077Z,1008.01
2016-04-28T03:41:58.003Z,1007.98
2016-04-28T03:42:57.974Z,1008.04
2016-04-28T03:43:57.961Z,1008.02
2016-04-28T03:44:57.947Z,1008.03
2016-04-28T03:45:57.920Z,1008.04
2016-04-28T03:46:57.907Z,1008.02
2016-04-28T03:47:57.893Z,1008.01
2016-04-28T03:48:57.866Z,1007.98
2016-04-28T03:49:57.868Z,1008
2016-04-28T03:50:57.839Z,1008.03
2016-04-28T03:51:57.841Z,1008
2016-04-28T03:52:57.813Z,1008.01
2016-04-28T03:53:57.785Z,1008.05
2016-04-28T03:54:57.771Z,1008.02
2016-04-28T03:55:57.759Z,1008.03
2016-04-28T03:56:58.590Z,1008.03
2016-04-28T03:57:57.718Z,1008.04
2016-04-28T03:58:57.704Z,1008.01
2016-04-28T03:59:57.692Z,1007.97
2016-04-28T04:00:57.663Z,1008.02
2016-04-28T04:01:57.651Z,1007.98
2016-04-28T04:02:57.637Z,1008
2016-04-28T04:03:57.624Z,1007.98
2016-04-28T04:04:57.596Z,1007.94
2016-04-28T04:05:57.583Z,1007.97
2016-04-28T04:06:57.570Z,1007.97
2016-04-28T04:07:57.541Z,1007.89
2016-04-28T04:08:57.528Z,1007.89
2016-04-28T04:09:57.515Z,1007.9
2016-04-28T04:10:57.503Z,1007.88
2016-04-28T04:11:57.474Z,1007.91
2016-04-28T04:12:57.477Z,1007.96
2016-04-28T04:13:57.448Z,1007.92
2016-04-28T04:14:57.435Z,1007.97
2016-04-28T04:15:57.406Z,1007.92
2016-04-28T04:16:57.394Z,1007.91
2016-04-28T04:17:57.381Z,1007.94
2016-04-28T04:18:57.368Z,1007.93
2016-04-28T04:19:57.338Z,1007.94
2016-04-28T04:20:57.327Z,1007.94
2016-04-28T04:21:57.313Z,1007.95
2016-04-28T04:22:57.285Z,1007.94
2016-04-28T04:23:57.271Z,1007.96
2016-04-28T04:24:57.260Z,1007.94
2016-04-28T04:25:57.246Z,1007.95
2016-04-28T04:26:57.452Z,1007.94
2016-04-28T04:27:57.204Z,1007.92
2016-04-28T04:28:57.176Z,1007.91
2016-04-28T04:29:57.163Z,1007.9
2016-04-28T04:30:57.150Z,1007.92
2016-04-28T04:31:57.137Z,1007.93
2016-04-28T04:32:57.109Z,1007.9
2016-04-28T04:33:57.111Z,1007.93
2016-04-28T04:34:57.082Z,1007.91
2016-04-28T04:35:57.069Z,1007.92
2016-04-28T04:36:57.057Z,1007.93
2016-04-28T04:37:57.028Z,1007.94
2016-04-28T04:38:57.015Z,1007.93
2016-04-28T04:39:57.003Z,1007.92
2016-04-28T04:40:56.973Z,1007.88
2016-04-28T04:41:56.961Z,1007.87
2016-04-28T04:42:56.947Z,1007.85
2016-04-28T04:43:56.935Z,1007.84
2016-04-28T04:44:56.906Z,1007.88
2016-04-28T04:45:56.894Z,1007.91
2016-04-28T04:46:56.880Z,1007.93
2016-04-28T04:47:56.852Z,1007.9
2016-04-28T04:48:56.839Z,1007.9
2016-04-28T04:49:56.826Z,1007.9
2016-04-28T04:50:56.813Z,1007.92
2016-04-28T04:51:56.785Z,1007.89
2016-04-28T04:52:56.772Z,1007.91
2016-04-28T04:53:56.743Z,1007.9
2016-04-28T04:54:56.730Z,1007.88
2016-04-28T04:55:56.718Z,1007.9
2016-04-28T04:56:56.704Z,1007.93
2016-04-28T04:57:56.676Z,1007.91
2016-04-28T04:58:56.693Z,1007.98
2016-04-28T04:59:56.650Z,1007.94
2016-04-28T05:00:56.637Z,1007.96
2016-04-28T05:01:56.609Z,1007.97
2016-04-28T05:02:56.595Z,1007.94
2016-04-28T05:03:56.582Z,1007.93
2016-04-28T05:04:56.554Z,1007.91
2016-04-28T05:05:56.540Z,1007.95
2016-04-28T05:06:56.528Z,1007.95
2016-04-28T05:07:56.500Z,1007.92
2016-04-28T05:08:56.487Z,1007.95
2016-04-28T05:09:56.473Z,1007.95
2016-04-28T05:10:56.460Z,1007.94
2016-04-28T05:11:56.447Z,1008
2016-04-28T05:12:56.420Z,1007.99
2016-04-28T05:13:56.406Z,1008.02
2016-04-28T05:14:56.393Z,1008.04
2016-04-28T05:15:56.365Z,1008.02
2016-04-28T05:16:56.352Z,1008.03
2016-04-28T05:17:56.339Z,1008.04
2016-04-28T05:18:56.310Z,1008.07
2016-04-28T05:19:56.298Z,1008.07
2016-04-28T05:20:56.284Z,1008.09
2016-04-28T05:21:56.272Z,1008.08
2016-04-28T05:22:56.243Z,1008.08
2016-04-28T05:23:56.229Z,1008.09
2016-04-28T05:24:56.216Z,1008.09
2016-04-28T05:25:56.189Z,1008.08
2016-04-28T05:26:56.910Z,1008.05
2016-04-28T05:27:56.162Z,1008.07
2016-04-28T05:28:56.150Z,1008.07
2016-04-28T05:29:56.137Z,1008.06
2016-04-28T05:30:56.108Z,1008.03
2016-04-28T05:31:56.095Z,1008.04
2016-04-28T05:32:56.083Z,1007.99
2016-04-28T05:33:56.053Z,1007.99
2016-04-28T05:34:56.057Z,1008.01
2016-04-28T05:35:56.028Z,1008.04
2016-04-28T05:36:56.014Z,1008.05
2016-04-28T05:37:56.001Z,1008.08
2016-04-28T05:38:55.974Z,1008.05
2016-04-28T05:39:55.961Z,1008.11
2016-04-28T05:40:55.947Z,1008.07
2016-04-28T05:41:55.919Z,1008.11
2016-04-28T05:42:55.906Z,1008.13
2016-04-28T05:43:55.893Z,1008.15
2016-04-28T05:44:55.865Z,1008.19
2016-04-28T05:45:55.852Z,1008.23
2016-04-28T05:46:55.838Z,1008.2
2016-04-28T05:47:55.811Z,1008.22
2016-04-28T05:48:55.797Z,1008.27
2016-04-28T05:49:55.784Z,1008.28
2016-04-28T05:50:55.755Z,1008.33
2016-04-28T05:51:55.744Z,1008.31
2016-04-28T05:52:55.730Z,1008.31
2016-04-28T05:53:55.717Z,1008.35
2016-04-28T05:54:55.704Z,1008.36
2016-04-28T05:55:55.675Z,1008.36
2016-04-28T05:56:55.663Z,1008.37
2016-04-28T05:57:55.649Z,1008.4
2016-04-28T05:58:55.637Z,1008.44
2016-04-28T05:59:55.608Z,1008.41
2016-04-28T06:00:55.601Z,1008.47
2016-04-28T06:01:55.613Z,1008.43
2016-04-28T06:02:55.641Z,1008.38
2016-04-28T06:03:55.668Z,1008.36
2016-04-28T06:04:55.697Z,1008.36
2016-04-28T06:05:55.704Z,1008.37
2016-04-28T06:06:55.706Z,1008.36
2016-04-28T06:07:55.708Z,1008.35
2016-04-28T06:08:55.695Z,1008.43
2016-04-28T06:09:55.695Z,1008.45
2016-04-28T06:10:55.712Z,1008.47
2016-04-28T06:11:55.688Z,1008.43
2016-04-28T06:12:55.665Z,1008.44
2016-04-28T06:13:55.672Z,1008.47
2016-04-28T06:14:55.649Z,1008.47
2016-04-28T06:15:55.640Z,1008.45
2016-04-28T06:16:55.629Z,1008.53
2016-04-28T06:17:55.602Z,1008.5
2016-04-28T06:18:55.591Z,1008.53
2016-04-28T06:19:55.581Z,1008.55
2016-04-28T06:20:55.553Z,1008.54
2016-04-28T06:21:55.542Z,1008.57
2016-04-28T06:22:55.514Z,1008.55
2016-04-28T06:23:55.501Z,1008.55
2016-04-28T06:24:55.489Z,1008.6
2016-04-28T06:25:55.478Z,1008.59
2016-04-28T06:26:55.605Z,1008.56
2016-04-28T06:27:55.437Z,1008.56
2016-04-28T06:28:55.423Z,1008.59
2016-04-28T06:29:55.412Z,1008.62
2016-04-28T06:30:55.399Z,1008.65
2016-04-28T06:31:55.370Z,1008.63
2016-04-28T06:32:55.358Z,1008.64
2016-04-28T06:33:55.344Z,1008.66
2016-04-28T06:34:55.316Z,1008.65
2016-04-28T06:35:55.304Z,1008.68
2016-04-28T06:36:55.290Z,1008.66
2016-04-28T06:37:55.261Z,1008.69
2016-04-28T06:38:55.248Z,1008.73
2016-04-28T06:39:55.235Z,1008.79
2016-04-28T06:40:55.223Z,1008.78
2016-04-28T06:41:55.209Z,1008.79
2016-04-28T06:42:55.181Z,1008.76
2016-04-28T06:43:55.168Z,1008.8
2016-04-28T06:44:55.155Z,1008.8
2016-04-28T06:45:55.142Z,1008.79
2016-04-28T06:46:55.129Z,1008.78
2016-04-28T06:47:55.101Z,1008.78
2016-04-28T06:48:55.088Z,1008.83
2016-04-28T06:49:55.059Z,1008.82
2016-04-28T06:50:55.046Z,1008.81
2016-04-28T06:51:55.034Z,1008.84
2016-04-28T06:52:55.005Z,1008.83
2016-04-28T06:53:54.992Z,1008.87
2016-04-28T06:54:54.979Z,1008.88
2016-04-28T06:55:54.950Z,1008.82
2016-04-28T06:56:54.938Z,1008.78
2016-04-28T06:57:54.924Z,1008.82
2016-04-28T06:58:54.911Z,1008.85
2016-04-28T06:59:54.898Z,1008.87
2016-04-28T07:00:54.870Z,1008.85
2016-04-28T07:01:54.858Z,1008.85
2016-04-28T07:02:54.844Z,1008.85
2016-04-28T07:03:54.815Z,1008.91
2016-04-28T07:04:54.803Z,1008.83
2016-04-28T07:05:54.790Z,1008.86
2016-04-28T07:06:54.776Z,1008.83
2016-04-28T07:07:54.764Z,1008.85
2016-04-28T07:08:54.735Z,1008.88
2016-04-28T07:09:54.722Z,1008.87
2016-04-28T07:10:54.694Z,1008.87
2016-04-28T07:11:54.853Z,1008.92
2016-04-28T07:12:54.668Z,1008.92
2016-04-28T07:13:54.656Z,1008.87
2016-04-28T07:14:54.626Z,1008.86
2016-04-28T07:15:54.614Z,1008.84
2016-04-28T07:16:54.600Z,1008.86
2016-04-28T07:17:54.587Z,1008.89
2016-04-28T07:18:54.575Z,1008.84
2016-04-28T07:19:54.546Z,1008.87
2016-04-28T07:20:54.533Z,1008.9
2016-04-28T07:21:54.520Z,1008.87
2016-04-28T07:22:54.509Z,1008.9
2016-04-28T07:23:54.480Z,1008.9
2016-04-28T07:24:54.467Z,1008.94
2016-04-28T07:25:54.454Z,1008.92
2016-04-28T07:26:54.535Z,1008.89
2016-04-28T07:27:54.412Z,1008.9
2016-04-28T07:28:54.399Z,1008.88
2016-04-28T07:29:54.386Z,1008.92
2016-04-28T07:30:54.358Z,1008.87
2016-04-28T07:31:54.361Z,1008.96
2016-04-28T07:32:54.333Z,1008.98
2016-04-28T07:33:54.304Z,1008.97
2016-04-28T07:34:54.306Z,1008.97
2016-04-28T07:35:54.278Z,1008.97
2016-04-28T07:36:54.264Z,1009
2016-04-28T07:37:54.236Z,1008.98
2016-04-28T07:38:54.223Z,1009.01
2016-04-28T07:39:54.210Z,1009
2016-04-28T07:40:54.197Z,1009.03
2016-04-28T07:41:54.169Z,1009.03
2016-04-28T07:42:54.155Z,1009.06
2016-04-28T07:43:54.143Z,1009.08
2016-04-28T07:44:54.115Z,1009.04
2016-04-28T07:45:54.102Z,1009.04
2016-04-28T07:46:54.089Z,1009.04
2016-04-28T07:47:54.076Z,1009.03
2016-04-28T07:48:54.046Z,1009.08
2016-04-28T07:49:54.034Z,1009.13
2016-04-28T07:50:54.021Z,1009.15
2016-04-28T07:51:54.008Z,1009.16
2016-04-28T07:52:53.979Z,1009.17
2016-04-28T07:53:53.967Z,1009.15
2016-04-28T07:54:53.954Z,1009.16
2016-04-28T07:55:53.941Z,1009.2
2016-04-28T07:56:53.929Z,1009.21
2016-04-28T07:57:54.275Z,1009.21
2016-04-28T07:58:53.887Z,1009.23
2016-04-28T07:59:53.873Z,1009.26
2016-04-28T08:00:53.861Z,1009.25
2016-04-28T08:01:53.832Z,1009.19
2016-04-28T08:02:54.225Z,1009.23
2016-04-28T08:03:53.791Z,1009.22
2016-04-28T08:04:53.793Z,1009.19
2016-04-28T08:05:53.764Z,1009.19
2016-04-28T08:06:53.767Z,1009.18
2016-04-28T08:07:53.782Z,1009.22
2016-04-28T08:08:53.706Z,1009.29
2016-04-28T08:09:53.693Z,1009.31
2016-04-28T08:10:53.681Z,1009.3
2016-04-28T08:11:56.479Z,1009.3
2016-04-28T08:12:53.748Z,1009.32
2016-04-28T08:13:53.609Z,1009.31
2016-04-28T08:14:53.598Z,1009.35
2016-04-28T08:15:53.600Z,1009.36
2016-04-28T08:16:53.572Z,1009.39
2016-04-28T08:17:53.543Z,1009.36
2016-04-28T08:18:53.531Z,1009.37
2016-04-28T08:19:53.517Z,1009.35
2016-04-28T08:20:53.503Z,1009.36
2016-04-28T08:21:53.491Z,1009.38
2016-04-28T08:22:53.463Z,1009.42
2016-04-28T08:23:53.450Z,1009.44
2016-04-28T08:24:53.436Z,1009.46
2016-04-28T08:25:53.424Z,1009.47
2016-04-28T08:26:53.411Z,1009.43
2016-04-28T08:27:53.383Z,1009.47
2016-04-28T08:28:53.370Z,1009.46
2016-04-28T08:29:53.357Z,1009.44
2016-04-28T08:30:53.328Z,1009.45
2016-04-28T08:31:53.330Z,1009.44
2016-04-28T08:32:53.302Z,1009.46
2016-04-28T08:33:53.289Z,1009.4
2016-04-28T08:34:53.276Z,1009.43
2016-04-28T08:35:53.248Z,1009.45
2016-04-28T08:36:53.235Z,1009.44
2016-04-28T08:37:53.221Z,1009.46
2016-04-28T08:38:53.209Z,1009.48
2016-04-28T08:39:53.179Z,1009.46
2016-04-28T08:40:53.168Z,1009.46
2016-04-28T08:41:56.186Z,1009.49
2016-04-28T08:42:53.142Z,1009.5
2016-04-28T08:43:53.129Z,1009.49
2016-04-28T08:44:53.115Z,1009.52
2016-04-28T08:45:53.103Z,1009.56
2016-04-28T08:46:53.074Z,1009.54
2016-04-28T08:47:53.061Z,1009.56
2016-04-28T08:48:53.033Z,1009.56
2016-04-28T08:49:53.020Z,1009.52
2016-04-28T08:50:53.007Z,1009.52
2016-04-28T08:51:52.978Z,1009.54
2016-04-28T08:52:52.981Z,1009.56
2016-04-28T08:53:52.952Z,1009.53
2016-04-28T08:54:52.939Z,1009.54
2016-04-28T08:55:52.911Z,1009.52
2016-04-28T08:56:52.898Z,1009.52
2016-04-28T08:57:52.900Z,1009.5
2016-04-28T08:58:52.872Z,1009.46
2016-04-28T08:59:52.843Z,1009.52
2016-04-28T09:00:52.830Z,1009.5
2016-04-28T09:01:52.818Z,1009.52
2016-04-28T09:02:52.805Z,1009.51
2016-04-28T09:03:52.792Z,1009.46
2016-04-28T09:04:52.779Z,1009.47
2016-04-28T09:05:52.750Z,1009.48
2016-04-28T09:06:52.738Z,1009.5
2016-04-28T09:07:52.709Z,1009.51
2016-04-28T09:08:52.712Z,1009.48
2016-04-28T09:09:52.682Z,1009.52
2016-04-28T09:10:52.732Z,1009.52
2016-04-28T09:11:52.641Z,1009.5
2016-04-28T09:12:52.644Z,1009.52
2016-04-28T09:13:52.616Z,1009.58
2016-04-28T09:14:52.603Z,1009.61
2016-04-28T09:15:52.590Z,1009.58
2016-04-28T09:16:52.561Z,1009.58
2016-04-28T09:17:52.548Z,1009.56
2016-04-28T09:18:52.535Z,1009.59
2016-04-28T09:19:52.522Z,1009.59
2016-04-28T09:20:52.509Z,1009.6
2016-04-28T09:21:52.793Z,1009.55
2016-04-28T09:22:52.467Z,1009.55
2016-04-28T09:23:52.470Z,1009.57
2016-04-28T09:24:52.442Z,1009.59
2016-04-28T09:25:52.429Z,1009.61
2016-04-28T09:26:53.197Z,1009.57
2016-04-28T09:27:52.388Z,1009.56
2016-04-28T09:28:52.374Z,1009.53
2016-04-28T09:29:52.346Z,1009.55
2016-04-28T09:30:52.332Z,1009.54
2016-04-28T09:31:52.366Z,1009.55
2016-04-28T09:32:52.323Z,1009.62
2016-04-28T09:33:52.294Z,1009.58
2016-04-28T09:34:52.609Z,1009.61
2016-04-28T09:35:52.252Z,1009.59
2016-04-28T09:36:52.599Z,1009.58
2016-04-28T09:37:52.227Z,1009.57
2016-04-28T09:38:52.198Z,1009.57
2016-04-28T09:39:52.185Z,1009.61
2016-04-28T09:40:52.172Z,1009.55
2016-04-28T09:41:52.159Z,1009.59
2016-04-28T09:42:52.132Z,1009.61
2016-04-28T09:43:52.134Z,1009.6
2016-04-28T09:44:52.105Z,1009.55
2016-04-28T09:45:52.107Z,1009.6
2016-04-28T09:46:52.079Z,1009.62
2016-04-28T09:47:52.066Z,1009.63
2016-04-28T09:48:52.037Z,1009.63
2016-04-28T09:49:52.025Z,1009.63
2016-04-28T09:50:52.012Z,1009.65
2016-04-28T09:51:51.998Z,1009.63
2016-04-28T09:52:51.986Z,1009.68
2016-04-28T09:53:51.958Z,1009.66
2016-04-28T09:54:51.960Z,1009.67
2016-04-28T09:55:51.947Z,1009.68
2016-04-28T09:56:51.918Z,1009.68
2016-04-28T09:57:51.889Z,1009.64
2016-04-28T09:58:51.892Z,1009.63
2016-04-28T09:59:51.864Z,1009.62
2016-04-28T10:00:51.852Z,1009.57
2016-04-28T10:01:51.838Z,1009.63
2016-04-28T10:02:51.825Z,1009.6
2016-04-28T10:03:51.813Z,1009.6
2016-04-28T10:04:51.799Z,1009.59
2016-04-28T10:05:51.771Z,1009.54
2016-04-28T10:06:51.758Z,1009.61
2016-04-28T10:07:51.746Z,1009.57
2016-04-28T10:08:51.733Z,1009.62
2016-04-28T10:09:51.719Z,1009.53
2016-04-28T10:10:51.707Z,1009.59
2016-04-28T10:11:51.694Z,1009.57
2016-04-28T10:12:51.664Z,1009.61
2016-04-28T10:13:51.651Z,1009.58
2016-04-28T10:14:51.640Z,1009.64
2016-04-28T10:15:51.626Z,1009.64
2016-04-28T10:16:51.597Z,1009.61
2016-04-28T10:17:51.600Z,1009.68
2016-04-28T10:18:51.571Z,1009.63
2016-04-28T10:19:51.558Z,1009.58
2016-04-28T10:20:51.546Z,1009.53
2016-04-28T10:21:51.533Z,1009.55
2016-04-28T10:22:51.520Z,1009.56
2016-04-28T10:23:51.506Z,1009.55
2016-04-28T10:24:51.495Z,1009.62
2016-04-28T10:25:51.481Z,1009.51
2016-04-28T10:26:52.000Z,1009.65
2016-04-28T10:27:51.455Z,1009.51
2016-04-28T10:28:51.427Z,1009.54
2016-04-28T10:29:51.414Z,1009.64
2016-04-28T10:30:51.400Z,1009.59
2016-04-28T10:31:51.403Z,1009.63
2016-04-28T10:32:51.375Z,1009.6
2016-04-28T10:33:51.377Z,1009.67
2016-04-28T10:34:51.333Z,1009.63
2016-04-28T10:35:51.336Z,1009.61
2016-04-28T10:36:51.308Z,1009.63
2016-04-28T10:37:51.295Z,1009.57
2016-04-28T10:38:51.281Z,1009.63
2016-04-28T10:39:51.268Z,1009.62
2016-04-28T10:40:51.255Z,1009.56
2016-04-28T10:41:52.149Z,1009.59
2016-04-28T10:42:51.229Z,1009.55
2016-04-28T10:43:51.217Z,1009.54
2016-04-28T10:44:51.188Z,1009.43
2016-04-28T10:45:51.176Z,1009.48
2016-04-28T10:46:51.163Z,1009.4
2016-04-28T10:47:51.149Z,1009.52
2016-04-28T10:48:51.137Z,1009.42
2016-04-28T10:49:51.140Z,1009.43
2016-04-28T10:50:51.126Z,1009.51
2016-04-28T10:51:51.098Z,1009.5
2016-04-28T10:52:51.084Z,1009.52
2016-04-28T10:53:51.087Z,1009.56
2016-04-28T10:54:51.059Z,1009.48
2016-04-28T10:55:51.046Z,1009.49
2016-04-28T10:56:51.080Z,1009.6
2016-04-28T10:57:51.020Z,1009.48
2016-04-28T10:58:51.008Z,1009.53
2016-04-28T10:59:51.010Z,1009.5
2016-04-28T11:00:50.966Z,1009.53
2016-04-28T11:01:50.969Z,1009.59
2016-04-28T11:02:50.956Z,1009.64
2016-04-28T11:03:50.942Z,1009.63
2016-04-28T11:04:50.930Z,1009.79
2016-04-28T11:05:50.916Z,1009.84
2016-04-28T11:06:50.904Z,1009.87
2016-04-28T11:07:50.891Z,1009.41
2016-04-28T11:08:50.877Z,1009.81
2016-04-28T11:09:50.865Z,1009.76
2016-04-28T11:10:50.868Z,1009.81
2016-04-28T11:11:50.855Z,1009.85
2016-04-28T11:12:50.841Z,1009.81
2016-04-28T11:13:50.844Z,1009.72
2016-04-28T11:14:50.816Z,1009.77
2016-04-28T11:15:50.818Z,1009.4
2016-04-28T11:16:50.806Z,1009.73
2016-04-28T11:17:50.809Z,1009.69
2016-04-28T11:18:50.795Z,1009.54
2016-04-28T11:19:50.798Z,1009.28
2016-04-28T11:20:50.794Z,1009.39
2016-04-28T11:21:50.782Z,1009.31
2016-04-28T11:22:50.785Z,1009.33
2016-04-28T11:23:50.772Z,1009.69
2016-04-28T11:24:50.775Z,1009.67
2016-04-28T11:25:50.777Z,1009.64
2016-04-28T11:26:50.764Z,1009.6
2016-04-28T11:27:51.470Z,1009.55
2016-04-28T11:28:50.738Z,1009.61
2016-04-28T11:29:50.741Z,1009.57
2016-04-28T11:30:50.743Z,1009.6
2016-04-28T11:31:50.731Z,1009.66
2016-04-28T11:32:50.734Z,1009.58
2016-04-28T11:33:50.736Z,1009.53
2016-04-28T11:34:50.723Z,1009.18
2016-04-28T11:35:50.710Z,1009.63
2016-04-28T11:36:50.712Z,1009.56
2016-04-28T11:37:50.715Z,1009.57
2016-04-28T11:38:50.702Z,1009.55
2016-04-28T11:39:50.705Z,1009.56
2016-04-28T11:40:50.708Z,1009.56
2016-04-28T11:41:51.210Z,1009.51
2016-04-28T11:42:51.682Z,1009.55
2016-04-28T11:43:50.701Z,1009.54
2016-04-28T11:44:50.704Z,1009.58
2016-04-28T11:45:50.690Z,1009.58
2016-04-28T11:46:50.693Z,1009.47
2016-04-28T11:47:50.696Z,1009.64
2016-04-28T11:48:50.698Z,1009.59
2016-04-28T11:49:50.686Z,1009.55
2016-04-28T11:50:50.689Z,1009.58
2016-04-28T11:51:50.676Z,1009.58
2016-04-28T11:52:50.694Z,1009.61
2016-04-28T11:53:50.678Z,1009.54
2016-04-28T11:54:50.680Z,1009.5
2016-04-28T11:55:50.667Z,1009.54
2016-04-28T11:56:50.670Z,1009.58
2016-04-28T11:57:50.673Z,1009.21
2016-04-28T11:58:50.661Z,1009.2
2016-04-28T11:59:50.663Z,1009.28
2016-04-28T12:00:50.666Z,1009.24
2016-04-28T12:01:50.684Z,1009.57
2016-04-28T12:02:50.655Z,1009.57
2016-04-28T12:05:50.663Z,1009.57
2016-04-28T12:06:50.650Z,1009.51
2016-04-28T12:07:50.653Z,1009.49
2016-04-28T12:08:50.671Z,1009.44
2016-04-28T12:09:50.658Z,1009.47